Terminal Aerodrome Forecast
Issued by NWS Quad Cities IA IL

Home | Current Version | Previous Version | Text Only | Print | Product List | Glossary On
Versions: 1 2 3 4 5 6 7 8 9 10 11 12 13 14 15 16 17 18 19 20 21 22 23 24
015
FTUS43 KDVN 232345
TAFDBQ
TAF
KDBQ 232345Z 2400/2424 06014G21KT 6SM -RA BR BKN009 OVC015
      TEMPO 2400/2404 2SM -RA BR OVC005
     FM240400 05016G24KT 2SM -RA BR OVC005
     FM241500 01011KT 4SM BR VCSH OVC008
     FM242300 34014G22KT 2SM -SN BR OVC005=

USA.gov is the U.S. government's official web portal to all federal, state and local government web resources and services.